Time;durP1;ratioP1;P1;durP2;ratioP2;P2;SDS_P1;SDS_P2;PMS_P1;PMS_P2;Temp;Humidity;BMP_temperature;BMP_pressure;BME280_temperature;BME280_humidity;BME280_pressure;Samples;Min_cycle;Max_cycle;Signal;HPM_P1;HPM_P2
2021/01/26 00:00:18;;;;;;;15.35;10.23;;;2.00;99.90;;;;;;5008052;28;20034;-45
2021/01/26 00:02:45;;;;;;;13.38;9.75;;;2.00;99.90;;;;;;5007946;28;20141;-44
2021/01/26 00:05:12;;;;;;;13.38;9.23;;;2.00;99.90;;;;;;5007872;28;20029;-44
2021/01/26 00:07:37;;;;;;;17.15;10.15;;;2.00;99.90;;;;;;5007591;28;20030;-42
2021/01/26 00:10:07;;;;;;;14.13;9.73;;;2.00;99.90;;;;;;5007978;28;20052;-41
2021/01/26 00:12:34;;;;;;;13.77;10.10;;;2.00;99.90;;;;;;5007661;28;20041;-43
2021/01/26 00:14:59;;;;;;;14.43;9.82;;;2.10;99.90;;;;;;5009654;28;20034;-43
2021/01/26 00:17:25;;;;;;;14.13;10.00;;;2.00;99.70;;;;;;5011476;28;20037;-44
2021/01/26 00:19:50;;;;;;;13.63;9.80;;;2.10;99.90;;;;;;5012444;28;20040;-42
2021/01/26 00:22:16;;;;;;;11.60;9.27;;;2.00;99.90;;;;;;5011396;28;20046;-45
2021/01/26 00:24:42;;;;;;;15.10;10.75;;;2.00;99.90;;;;;;5011597;28;20052;-44
2021/01/26 00:27:07;;;;;;;16.40;10.70;;;2.00;99.90;;;;;;5011454;28;20033;-49
2021/01/26 00:29:33;;;;;;;16.48;11.00;;;2.00;99.90;;;;;;5011415;28;20624;-44
2021/01/26 00:31:58;;;;;;;22.48;10.57;;;2.00;99.90;;;;;;5011515;28;20099;-41
2021/01/26 00:34:24;;;;;;;17.10;10.90;;;2.10;99.90;;;;;;5011235;28;20026;-45
2021/01/26 00:36:49;;;;;;;18.77;10.85;;;2.00;99.90;;;;;;5010940;28;20482;-45
2021/01/26 00:39:15;;;;;;;17.50;11.65;;;2.00;99.90;;;;;;4993085;28;20113;-42
2021/01/26 00:41:40;;;;;;;17.27;11.13;;;2.00;99.90;;;;;;4994316;28;20105;-41
2021/01/26 00:44:06;;;;;;;12.93;9.77;;;2.00;99.90;;;;;;4993442;28;20629;-41
2021/01/26 00:46:31;;;;;;;14.95;11.02;;;2.00;99.90;;;;;;4993619;28;20030;-41
2021/01/26 00:48:57;;;;;;;16.40;10.45;;;2.00;99.90;;;;;;4994531;28;20051;-42
2021/01/26 00:51:22;;;;;;;15.52;11.48;;;1.90;99.90;;;;;;4994282;28;20494;-42
2021/01/26 00:53:48;;;;;;;16.75;11.52;;;1.90;99.90;;;;;;4994239;28;20430;-41
2021/01/26 00:56:14;;;;;;;19.77;13.15;;;1.90;99.90;;;;;;4994417;28;20037;-44
2021/01/26 00:58:39;;;;;;;21.55;12.63;;;1.90;99.90;;;;;;5023163;23;20042;-41
2021/01/26 01:01:05;;;;;;;21.13;13.02;;;1.90;99.90;;;;;;5046240;28;20044;-44
2021/01/26 01:03:31;;;;;;;19.40;12.10;;;1.90;99.90;;;;;;5047838;28;20037;-42
2021/01/26 01:05:57;;;;;;;17.77;12.68;;;1.90;99.90;;;;;;5048920;28;20022;-44
2021/01/26 01:08:23;;;;;;;17.80;12.32;;;1.80;99.90;;;;;;5047802;28;20025;-43
2021/01/26 01:10:50;;;;;;;18.50;12.38;;;1.80;99.90;;;;;;5046720;28;20116;-49
2021/01/26 01:13:16;;;;;;;18.20;11.48;;;1.80;99.90;;;;;;5046525;28;20036;-41
2021/01/26 01:15:41;;;;;;;22.95;13.40;;;1.80;99.90;;;;;;5044609;28;20073;-43
2021/01/26 01:18:08;;;;;;;18.00;11.93;;;1.80;99.90;;;;;;5045374;28;20025;-45
2021/01/26 01:20:34;;;;;;;19.23;13.38;;;1.80;99.90;;;;;;5047427;28;20091;-43
2021/01/26 01:22:59;;;;;;;19.58;12.40;;;1.90;99.90;;;;;;5047651;28;20523;-42
2021/01/26 01:25:25;;;;;;;19.52;11.68;;;1.90;99.90;;;;;;5048340;28;20036;-44
2021/01/26 01:27:51;;;;;;;23.08;12.18;;;1.90;99.90;;;;;;5045181;28;20028;-48
2021/01/26 01:30:21;;;;;;;19.70;12.00;;;1.90;99.90;;;;;;5042689;28;20055;-42
2021/01/26 01:32:47;;;;;;;17.90;12.60;;;1.90;99.90;;;;;;5043967;28;20072;-49
2021/01/26 01:35:14;;;;;;;19.92;13.40;;;1.90;99.90;;;;;;5044263;28;20030;-45
2021/01/26 01:37:39;;;;;;;19.27;12.75;;;1.90;99.90;;;;;;5045604;28;20107;-44
2021/01/26 01:40:08;;;;;;;24.67;13.35;;;1.90;99.90;;;;;;5045833;28;20029;-48
2021/01/26 01:42:34;;;;;;;23.27;13.30;;;1.90;99.90;;;;;;5045387;28;20125;-42
2021/01/26 01:44:59;;;;;;;18.65;12.73;;;1.80;99.90;;;;;;5047776;28;20029;-47
2021/01/26 01:47:29;;;;;;;19.10;12.63;;;2.00;99.90;;;;;;5048551;28;20083;-42
2021/01/26 01:49:59;;;;;;;18.67;13.02;;;1.90;99.90;;;;;;5046264;28;20026;-47
2021/01/26 01:52:28;;;;;;;20.77;14.18;;;1.90;99.90;;;;;;5046335;28;20049;-45
2021/01/26 01:55:01;;;;;;;19.20;12.48;;;2.00;99.90;;;;;;5046088;28;20417;-45
2021/01/26 01:57:33;;;;;;;19.30;13.05;;;2.00;99.90;;;;;;5047023;28;20018;-47
2021/01/26 02:00:06;;;;;;;17.10;12.02;;;2.00;99.90;;;;;;5046258;28;20030;-43
2021/01/26 02:02:31;;;;;;;19.33;12.98;;;2.00;99.90;;;;;;5045523;28;20121;-45
2021/01/26 02:05:01;;;;;;;19.42;13.43;;;1.80;99.90;;;;;;5046547;28;20052;-42
2021/01/26 02:07:28;;;;;;;21.33;14.20;;;1.90;99.90;;;;;;5046801;28;20052;-45
2021/01/26 02:09:54;;;;;;;23.20;13.32;;;1.90;99.90;;;;;;5047053;28;20014;-47
2021/01/26 02:12:19;;;;;;;20.63;13.13;;;1.90;99.90;;;;;;5047033;28;20029;-45
2021/01/26 02:14:54;;;;;;;21.63;13.88;;;1.90;99.90;;;;;;5046073;28;20033;-44
2021/01/26 02:17:47;;;;;;;21.08;12.77;;;1.90;99.90;;;;;;5027716;28;20073;-41
2021/01/26 02:20:57;;;;;;;22.08;13.40;;;1.90;99.90;;;;;;5026763;28;20018;-41
2021/01/26 02:23:38;;;;;;;20.10;13.88;;;1.80;99.90;;;;;;5025306;28;20041;-44
2021/01/26 02:27:01;;;;;;;24.10;14.02;;;1.80;99.90;;;;;;5027031;28;20485;-42
2021/01/26 02:30:01;;;;;;;25.25;14.07;;;1.90;99.90;;;;;;5015190;28;20117;-45
2021/01/26 02:33:11;;;;;;;26.13;13.25;;;1.80;99.90;;;;;;5025617;28;20032;-42
2021/01/26 02:36:04;;;;;;;21.88;13.38;;;1.80;99.90;;;;;;5025996;28;20385;-49
2021/01/26 02:38:56;;;;;;;19.60;11.70;;;1.90;99.90;;;;;;5026060;28;20053;-45
2021/01/26 02:41:26;;;;;;;18.48;11.95;;;1.90;99.90;;;;;;5026804;28;20061;-40
2021/01/26 02:44:23;;;;;;;23.58;13.52;;;2.00;99.90;;;;;;5023320;28;20040;-45
2021/01/26 02:46:56;;;;;;;19.60;11.82;;;2.10;99.90;;;;;;5004138;28;20030;-45
2021/01/26 02:49:39;;;;;;;22.77;12.25;;;2.10;99.90;;;;;;5024813;28;20048;-41
2021/01/26 02:52:12;;;;;;;21.60;13.15;;;2.20;99.90;;;;;;5025534;28;20065;-47
2021/01/26 02:54:52;;;;;;;24.02;13.43;;;2.20;99.90;;;;;;5025167;28;20018;-44
2021/01/26 02:57:26;;;;;;;17.98;12.07;;;2.20;99.90;;;;;;5026077;28;20026;-45
2021/01/26 03:00:06;;;;;;;19.17;12.38;;;2.20;99.90;;;;;;5025365;28;20038;-44
2021/01/26 03:02:43;;;;;;;20.58;12.35;;;2.20;99.90;;;;;;5025373;28;20049;-45
2021/01/26 03:05:17;;;;;;;18.13;12.00;;;2.20;99.90;;;;;;5025793;28;20301;-45
2021/01/26 03:07:49;;;;;;;18.20;11.43;;;2.20;99.90;;;;;;5025440;28;20018;-46
2021/01/26 03:10:19;;;;;;;21.23;12.00;;;2.20;99.90;;;;;;5025262;28;20026;-47
2021/01/26 03:12:55;;;;;;;20.95;11.90;;;2.20;99.90;;;;;;5023765;28;20053;-42
2021/01/26 03:15:28;;;;;;;22.35;12.30;;;2.30;99.90;;;;;;5023356;28;20036;-43
2021/01/26 03:17:59;;;;;;;26.55;12.02;;;2.30;99.90;;;;;;5024941;28;20038;-48
2021/01/26 03:20:49;;;;;;;18.17;11.32;;;2.30;99.90;;;;;;5023314;28;20407;-48
2021/01/26 03:23:37;;;;;;;18.42;11.43;;;2.30;99.90;;;;;;5022351;28;20052;-42
2021/01/26 03:26:05;;;;;;;21.48;12.38;;;2.30;99.90;;;;;;5022912;28;20407;-43
2021/01/26 03:28:30;;;;;;;22.98;12.15;;;2.30;99.90;;;;;;5023746;28;20309;-46
2021/01/26 03:30:59;;;;;;;20.67;11.95;;;2.20;99.90;;;;;;5024145;28;20496;-43
2021/01/26 03:33:31;;;;;;;21.08;12.30;;;2.20;99.90;;;;;;5021548;28;20041;-46
2021/01/26 03:35:57;;;;;;;21.65;12.02;;;2.30;99.90;;;;;;5022899;28;20050;-45
2021/01/26 03:38:26;;;;;;;24.58;11.98;;;2.40;99.90;;;;;;5022973;28;20096;-46
2021/01/26 03:40:53;;;;;;;21.50;11.32;;;2.40;99.90;;;;;;5022858;28;20030;-42
2021/01/26 03:43:19;;;;;;;15.48;10.23;;;2.40;99.90;;;;;;5020767;28;20026;-42
2021/01/26 03:45:52;;;;;;;16.75;10.52;;;2.40;99.90;;;;;;5023772;28;20373;-47
2021/01/26 03:49:17;;;;;;;15.70;11.00;;;2.40;99.90;;;;;;5023115;28;20524;-46
2021/01/26 03:52:11;;;;;;;21.63;11.00;;;2.50;99.90;;;;;;4990904;28;20054;-51
2021/01/26 03:54:44;;;;;;;18.42;10.65;;;2.60;99.90;;;;;;5026389;28;20033;-45
2021/01/26 03:57:33;;;;;;;18.52;10.20;;;2.70;99.90;;;;;;5027502;28;20026;-50
2021/01/26 04:00:13;;;;;;;19.05;10.32;;;2.70;99.90;;;;;;5025818;28;20034;-45
2021/01/26 04:02:54;;;;;;;18.27;11.30;;;2.70;99.90;;;;;;5025971;28;20022;-46
2021/01/26 04:05:34;;;;;;;20.50;10.57;;;2.60;99.90;;;;;;5026720;28;20032;-47
2021/01/26 04:08:04;;;;;;;15.57;9.60;;;2.60;99.90;;;;;;5026578;28;20025;-50
2021/01/26 04:10:35;;;;;;;16.95;10.18;;;2.70;99.90;;;;;;5026347;28;20024;-48
2021/01/26 04:13:04;;;;;;;18.38;10.52;;;2.70;99.90;;;;;;5026270;28;20121;-42
2021/01/26 04:15:46;;;;;;;18.73;10.23;;;2.70;99.90;;;;;;5026712;28;20094;-45
2021/01/26 04:18:13;;;;;;;16.25;9.48;;;2.70;99.90;;;;;;5025451;28;20140;-42
2021/01/26 04:20:41;;;;;;;15.75;9.88;;;2.80;99.90;;;;;;5026438;28;20029;-46
2021/01/26 04:23:07;;;;;;;16.95;8.73;;;2.90;99.90;;;;;;5025236;28;20045;-42
2021/01/26 04:25:42;;;;;;;17.98;9.73;;;2.80;99.90;;;;;;5025109;28;20065;-43
2021/01/26 04:28:13;;;;;;;13.88;9.63;;;2.80;99.90;;;;;;5025825;28;20026;-45
2021/01/26 04:30:40;;;;;;;18.90;8.95;;;2.90;99.90;;;;;;5025591;28;20476;-43
2021/01/26 04:33:14;;;;;;;16.63;9.30;;;2.80;99.90;;;;;;5024937;28;20064;-48
2021/01/26 04:35:40;;;;;;;25.05;9.73;;;2.90;99.90;;;;;;5026622;28;20022;-44
2021/01/26 04:38:06;;;;;;;19.88;9.82;;;3.00;99.90;;;;;;5026547;28;20032;-43
2021/01/26 04:40:34;;;;;;;19.88;9.90;;;3.00;99.90;;;;;;5027289;28;20353;-45
2021/01/26 04:43:14;;;;;;;15.50;9.02;;;3.10;99.90;;;;;;5023785;28;20026;-46
2021/01/26 04:46:29;;;;;;;15.82;8.52;;;3.00;99.90;;;;;;5025697;28;20026;-48
2021/01/26 04:49:13;;;;;;;19.98;9.75;;;3.00;99.90;;;;;;5020657;28;20124;-41
2021/01/26 04:51:57;;;;;;;15.75;8.38;;;3.00;99.90;;;;;;5026177;28;20026;-43
2021/01/26 04:54:42;;;;;;;15.85;8.55;;;2.90;99.90;;;;;;5024854;28;20061;-42
2021/01/26 04:57:37;;;;;;;11.50;8.15;;;2.90;99.90;;;;;;5028049;28;20089;-43
2021/01/26 05:00:28;;;;;;;15.33;8.47;;;2.90;99.90;;;;;;5026244;28;20069;-42
2021/01/26 05:03:05;;;;;;;14.05;9.02;;;2.90;99.90;;;;;;5025286;28;20053;-40
2021/01/26 05:05:34;;;;;;;15.40;9.23;;;2.90;99.90;;;;;;5026619;28;20024;-43
2021/01/26 05:08:05;;;;;;;10.57;7.85;;;2.90;99.90;;;;;;5026383;28;20068;-41
2021/01/26 05:10:41;;;;;;;14.43;8.27;;;3.00;99.90;;;;;;5026821;28;20022;-50
2021/01/26 05:13:26;;;;;;;15.23;7.60;;;3.00;99.90;;;;;;5025250;28;20052;-49
2021/01/26 05:16:01;;;;;;;14.93;7.97;;;3.00;99.90;;;;;;5027130;28;20037;-43
2021/01/26 05:18:39;;;;;;;15.23;7.63;;;3.00;99.90;;;;;;5026322;28;20023;-41
2021/01/26 05:21:12;;;;;;;13.20;8.60;;;3.00;99.90;;;;;;5026196;28;20057;-49
2021/01/26 05:23:47;;;;;;;17.52;8.95;;;3.00;99.90;;;;;;5025258;28;20030;-47
2021/01/26 05:26:13;;;;;;;13.38;8.48;;;3.00;99.90;;;;;;5026429;28;20021;-51
2021/01/26 05:28:46;;;;;;;10.27;7.47;;;3.00;99.90;;;;;;5026969;28;20040;-45
2021/01/26 05:31:31;;;;;;;11.60;7.15;;;3.00;99.90;;;;;;5025261;28;20034;-42
2021/01/26 05:34:07;;;;;;;11.20;7.82;;;3.00;99.90;;;;;;5023871;28;20030;-42
2021/01/26 05:36:33;;;;;;;17.05;7.82;;;3.00;99.90;;;;;;5024560;28;20118;-46
2021/01/26 05:38:59;;;;;;;16.50;7.82;;;3.00;99.90;;;;;;5024355;28;20025;-49
2021/01/26 05:41:25;;;;;;;13.98;8.38;;;3.00;99.90;;;;;;5024629;28;20037;-42
2021/01/26 05:43:53;;;;;;;10.05;6.90;;;3.00;99.90;;;;;;5021755;28;20026;-43
2021/01/26 05:46:38;;;;;;;16.38;7.20;;;3.00;99.90;;;;;;5023332;28;20034;-42
2021/01/26 05:49:04;;;;;;;10.23;7.93;;;3.00;99.90;;;;;;5022813;28;20049;-48
2021/01/26 05:51:31;;;;;;;14.25;7.00;;;3.00;99.90;;;;;;5022492;28;20026;-45
2021/01/26 05:54:00;;;;;;;10.13;6.20;;;3.00;99.90;;;;;;5022579;28;20021;-42
2021/01/26 05:56:28;;;;;;;11.52;6.15;;;3.10;99.90;;;;;;5025627;28;20034;-45
2021/01/26 05:58:54;;;;;;;12.00;6.50;;;3.10;99.90;;;;;;5024063;28;20504;-48
2021/01/26 06:01:22;;;;;;;10.80;6.07;;;3.10;99.90;;;;;;5023716;28;20036;-48
2021/01/26 06:04:09;;;;;;;13.27;6.65;;;3.00;99.90;;;;;;5022676;28;20030;-48
2021/01/26 06:06:51;;;;;;;16.42;7.35;;;3.00;99.90;;;;;;5023410;28;20022;-42
2021/01/26 06:09:40;;;;;;;13.43;6.15;;;3.10;99.90;;;;;;5023361;28;20109;-42
2021/01/26 06:12:24;;;;;;;9.98;5.95;;;3.00;99.90;;;;;;5023442;28;20025;-50
2021/01/26 06:14:55;;;;;;;15.18;6.32;;;3.00;99.90;;;;;;5023671;28;20022;-43
2021/01/26 06:17:27;;;;;;;17.00;6.60;;;3.00;99.90;;;;;;5025668;28;20037;-42
2021/01/26 06:20:07;;;;;;;7.28;5.55;;;3.00;99.90;;;;;;5023135;28;20041;-48
2021/01/26 06:22:33;;;;;;;9.43;5.65;;;3.00;99.90;;;;;;5023487;28;20041;-41
2021/01/26 06:25:08;;;;;;;9.15;6.07;;;3.10;99.90;;;;;;5022836;28;20021;-44
2021/01/26 06:27:51;;;;;;;9.73;5.63;;;3.10;99.90;;;;;;5023344;28;20040;-49
2021/01/26 06:30:36;;;;;;;9.77;5.88;;;3.10;99.90;;;;;;5022702;28;20272;-45
2021/01/26 06:33:07;;;;;;;8.38;5.30;;;3.10;99.90;;;;;;5022524;28;20030;-43
2021/01/26 06:36:07;;;;;;;6.63;5.13;;;3.10;99.90;;;;;;5023622;28;20036;-43
2021/01/26 06:38:41;;;;;;;6.70;3.97;;;3.10;99.90;;;;;;5023625;28;20021;-49
2021/01/26 06:41:35;;;;;;;8.57;5.18;;;3.10;99.90;;;;;;5023535;28;20076;-50
2021/01/26 06:44:28;;;;;;;10.38;5.05;;;3.20;99.90;;;;;;5023415;28;20036;-47
2021/01/26 06:47:07;;;;;;;10.07;4.63;;;3.20;99.90;;;;;;5025808;28;20026;-43
2021/01/26 06:49:51;;;;;;;10.35;4.60;;;3.30;99.90;;;;;;5024783;28;20013;-50
2021/01/26 06:52:32;;;;;;;6.95;5.00;;;3.20;99.90;;;;;;5023184;28;20097;-49
2021/01/26 06:55:30;;;;;;;8.23;4.32;;;3.10;99.90;;;;;;5024495;28;20014;-48
2021/01/26 06:58:13;;;;;;;8.15;4.82;;;3.20;99.90;;;;;;5024549;28;20033;-46
2021/01/26 07:00:49;;;;;;;10.45;4.57;;;3.20;99.90;;;;;;5028936;23;20056;-42
2021/01/26 07:03:31;;;;;;;10.93;5.60;;;3.20;99.90;;;;;;5010500;28;20049;-41
2021/01/26 07:06:25;;;;;;;9.20;4.60;;;3.20;99.90;;;;;;5011159;28;20100;-41
2021/01/26 07:09:02;;;;;;;5.95;3.88;;;3.20;99.90;;;;;;4973392;28;20498;-42
2021/01/26 07:12:03;;;;;;;9.35;4.68;;;3.20;99.90;;;;;;5011079;28;20145;-42
2021/01/26 07:14:40;;;;;;;11.95;4.93;;;3.20;99.90;;;;;;5010732;28;20087;-43
2021/01/26 07:17:07;;;;;;;11.90;4.22;;;3.30;99.90;;;;;;5011082;28;20059;-41
2021/01/26 07:19:59;;;;;;;9.02;4.05;;;3.30;99.90;;;;;;5010672;28;20033;-41
2021/01/26 07:22:31;;;;;;;5.68;3.30;;;3.30;99.90;;;;;;5010775;28;20055;-41
2021/01/26 07:25:09;;;;;;;5.85;3.60;;;3.40;99.90;;;;;;5009896;28;20026;-41
2021/01/26 07:28:00;;;;;;;8.10;4.07;;;3.40;99.70;;;;;;5010842;28;20083;-41
2021/01/26 07:30:52;;;;;;;6.53;4.15;;;3.40;99.50;;;;;;5011208;28;20214;-40
2021/01/26 07:33:49;;;;;;;5.75;3.83;;;3.40;99.60;;;;;;5009015;28;20076;-42
2021/01/26 07:36:27;;;;;;;7.13;3.72;;;3.50;99.50;;;;;;4995979;28;20408;-41
2021/01/26 07:39:10;;;;;;;8.20;3.97;;;3.50;99.50;;;;;;5009694;28;20075;-44
2021/01/26 07:41:43;;;;;;;11.13;3.85;;;3.50;99.40;;;;;;5010687;28;20040;-43
2021/01/26 07:44:20;;;;;;;5.68;3.85;;;3.50;99.30;;;;;;5008087;28;20078;-42
2021/01/26 07:47:26;;;;;;;7.72;3.03;;;3.50;99.40;;;;;;5009360;28;20026;-44
2021/01/26 07:50:07;;;;;;;7.65;2.97;;;3.60;99.30;;;;;;5008598;28;20156;-42
2021/01/26 07:52:35;;;;;;;5.00;3.50;;;3.60;99.20;;;;;;5010230;28;20156;-42
2021/01/26 07:55:22;;;;;;;9.82;3.15;;;3.60;99.20;;;;;;5010306;28;20041;-41
2021/01/26 07:58:01;;;;;;;4.68;2.50;;;3.60;99.10;;;;;;5010612;28;20022;-41
2021/01/26 08:00:31;;;;;;;12.57;3.95;;;3.70;99.00;;;;;;5009514;28;20524;-42
2021/01/26 08:02:58;;;;;;;8.90;2.83;;;3.70;99.10;;;;;;5009929;28;20138;-43
2021/01/26 08:05:47;;;;;;;7.53;2.47;;;3.70;98.90;;;;;;5010599;28;20470;-41
2021/01/26 08:08:24;;;;;;;3.53;2.80;;;3.60;99.00;;;;;;5010444;28;20050;-42
2021/01/26 08:11:10;;;;;;;3.80;2.90;;;3.70;99.10;;;;;;5009130;28;20058;-41
2021/01/26 08:13:45;;;;;;;4.55;3.00;;;3.70;99.00;;;;;;5008398;28;20060;-42
2021/01/26 08:16:31;;;;;;;4.97;2.83;;;3.80;98.80;;;;;;5010649;28;20423;-41
2021/01/26 08:18:58;;;;;;;5.10;3.00;;;3.70;98.80;;;;;;5010201;28;20045;-42
2021/01/26 08:21:30;;;;;;;3.00;2.20;;;3.80;98.70;;;;;;5009994;28;20105;-41
2021/01/26 08:24:10;;;;;;;5.68;2.40;;;3.80;98.60;;;;;;5009390;28;20069;-42
2021/01/26 08:26:36;;;;;;;7.70;2.60;;;3.90;98.70;;;;;;5009571;28;20033;-47
2021/01/26 08:29:02;;;;;;;8.40;2.90;;;3.90;98.90;;;;;;5007215;28;20025;-42
2021/01/26 08:31:34;;;;;;;6.18;2.63;;;3.90;98.70;;;;;;5010872;28;20074;-42
2021/01/26 08:34:22;;;;;;;4.38;2.40;;;3.80;98.60;;;;;;5005890;28;20490;-43
2021/01/26 08:37:07;;;;;;;5.57;2.78;;;3.90;98.60;;;;;;4993378;28;20034;-42
2021/01/26 08:39:40;;;;;;;3.63;2.42;;;4.00;98.80;;;;;;5001501;28;20033;-43
2021/01/26 08:42:08;;;;;;;4.80;2.47;;;4.00;98.50;;;;;;5006812;28;20101;-44
2021/01/26 08:44:36;;;;;;;5.25;2.78;;;3.90;98.30;;;;;;5013404;28;20025;-43
2021/01/26 08:47:39;;;;;;;3.38;2.45;;;3.90;98.50;;;;;;5013071;28;20022;-41
2021/01/26 08:50:17;;;;;;;7.53;2.70;;;4.00;98.50;;;;;;4999330;28;20030;-44
2021/01/26 08:52:43;;;;;;;4.40;2.05;;;3.90;98.40;;;;;;4998204;28;20030;-42
2021/01/26 08:55:09;;;;;;;11.85;2.78;;;4.00;98.70;;;;;;4994917;28;20033;-42
2021/01/26 08:57:34;;;;;;;8.77;3.72;;;4.00;98.50;;;;;;4995109;28;20034;-44
2021/01/26 09:00:14;;;;;;;3.50;2.63;;;4.00;98.30;;;;;;4998215;28;20038;-42
2021/01/26 09:02:49;;;;;;;4.82;2.65;;;4.00;98.40;;;;;;5007991;28;20026;-41
2021/01/26 09:05:40;;;;;;;5.73;2.73;;;3.90;98.50;;;;;;5012209;28;20026;-42
2021/01/26 09:08:07;;;;;;;5.40;2.40;;;4.00;98.30;;;;;;5012687;28;20280;-45
2021/01/26 09:10:47;;;;;;;8.07;2.08;;;4.00;98.20;;;;;;5013471;28;20274;-43
2021/01/26 09:13:33;;;;;;;8.48;2.70;;;4.00;98.10;;;;;;5012943;28;20125;-40
2021/01/26 09:16:10;;;;;;;3.42;2.20;;;3.90;98.20;;;;;;5013463;28;20022;-40
2021/01/26 09:18:37;;;;;;;5.60;2.42;;;4.00;98.20;;;;;;5013238;28;20493;-41
2021/01/26 09:21:13;;;;;;;8.07;3.22;;;4.00;98.10;;;;;;5012034;28;20545;-40
2021/01/26 09:23:41;;;;;;;2.33;2.03;;;4.00;98.00;;;;;;5012293;28;20168;-42
2021/01/26 09:26:17;;;;;;;3.55;2.28;;;4.00;97.90;;;;;;5013225;28;20157;-41
2021/01/26 09:28:46;;;;;;;2.78;2.08;;;4.10;97.90;;;;;;4998990;28;20049;-42
2021/01/26 09:31:13;;;;;;;7.85;2.75;;;4.10;97.60;;;;;;5003908;28;20093;-43
2021/01/26 09:33:39;;;;;;;4.85;2.30;;;4.20;97.50;;;;;;5012435;28;20034;-42
2021/01/26 09:36:08;;;;;;;8.00;2.17;;;4.30;97.60;;;;;;5013061;28;20034;-43
2021/01/26 09:38:46;;;;;;;5.68;2.47;;;4.20;97.70;;;;;;5012614;28;20034;-43
2021/01/26 09:41:23;;;;;;;6.53;2.80;;;4.10;97.80;;;;;;5013390;28;20030;-40
2021/01/26 09:44:11;;;;;;;6.70;2.30;;;4.20;97.60;;;;;;5010517;28;20109;-41
2021/01/26 09:46:42;;;;;;;6.45;2.20;;;4.20;97.80;;;;;;5011357;28;20022;-42
2021/01/26 09:49:16;;;;;;;6.82;2.90;;;4.20;97.70;;;;;;5008947;28;20501;-47
2021/01/26 09:52:02;;;;;;;3.30;2.58;;;4.20;97.70;;;;;;5003075;28;20117;-44
2021/01/26 09:54:34;;;;;;;5.63;2.47;;;4.30;97.50;;;;;;4993465;28;20034;-47
2021/01/26 09:57:01;;;;;;;6.90;2.42;;;4.30;97.20;;;;;;4997933;28;20401;-43
2021/01/26 09:59:31;;;;;;;8.82;2.50;;;4.40;97.30;;;;;;4998141;28;20041;-43
2021/01/26 10:02:00;;;;;;;8.75;3.13;;;4.40;97.30;;;;;;4993742;28;20038;-43
2021/01/26 10:04:26;;;;;;;6.15;1.98;;;4.30;97.40;;;;;;4993164;28;20121;-43
2021/01/26 10:06:59;;;;;;;11.15;2.92;;;4.30;97.50;;;;;;4993857;28;20033;-44
2021/01/26 10:09:30;;;;;;;5.28;2.50;;;4.40;97.80;;;;;;4994559;28;20088;-44
2021/01/26 10:12:15;;;;;;;5.60;2.22;;;4.40;97.60;;;;;;4997368;28;20025;-43
2021/01/26 10:14:41;;;;;;;7.85;2.35;;;4.40;97.50;;;;;;4999615;28;20061;-49
2021/01/26 10:17:12;;;;;;;4.95;2.25;;;4.50;97.80;;;;;;4996711;28;20030;-45
2021/01/26 10:19:38;;;;;;;6.28;2.30;;;4.60;97.20;;;;;;5011889;28;20191;-43
2021/01/26 10:22:18;;;;;;;12.05;2.33;;;4.70;97.10;;;;;;5000048;28;20560;-43
2021/01/26 10:24:44;;;;;;;4.30;2.55;;;4.80;96.60;;;;;;4990231;28;20346;-43
2021/01/26 10:27:23;;;;;;;3.53;2.28;;;4.90;96.70;;;;;;5002665;28;20026;-43
2021/01/26 10:30:04;;;;;;;5.70;1.90;;;4.90;96.30;;;;;;4993774;28;20057;-43
2021/01/26 10:32:44;;;;;;;5.10;1.90;;;4.90;96.70;;;;;;4996869;28;20037;-43
2021/01/26 10:35:22;;;;;;;5.25;2.10;;;4.80;96.80;;;;;;5012290;28;20068;-42
2021/01/26 10:37:47;;;;;;;4.45;1.90;;;4.80;96.50;;;;;;4994091;28;20026;-46
2021/01/26 10:40:30;;;;;;;4.50;2.30;;;4.70;96.40;;;;;;4992086;28;20036;-42
2021/01/26 10:42:58;;;;;;;6.57;2.10;;;4.70;96.80;;;;;;5003521;28;20497;-46
2021/01/26 10:45:34;;;;;;;2.92;2.38;;;4.80;96.50;;;;;;5010049;28;20030;-43
2021/01/26 10:48:24;;;;;;;5.90;2.03;;;4.80;96.50;;;;;;5011940;28;20026;-45
2021/01/26 10:50:55;;;;;;;4.80;1.98;;;4.90;96.60;;;;;;5005742;28;20026;-45
2021/01/26 10:53:47;;;;;;;3.67;2.30;;;4.90;96.60;;;;;;4991256;28;20034;-43
2021/01/26 10:56:13;;;;;;;5.07;1.85;;;4.90;96.50;;;;;;4992786;28;20125;-47
2021/01/26 10:58:44;;;;;;;6.00;2.22;;;5.00;96.30;;;;;;4998318;28;20030;-47
2021/01/26 11:01:12;;;;;;;6.07;1.77;;;5.00;96.20;;;;;;5011113;28;20556;-48
2021/01/26 11:03:38;;;;;;;5.47;2.13;;;4.90;96.30;;;;;;5010290;28;20379;-49
2021/01/26 11:06:03;;;;;;;7.40;2.33;;;5.00;96.40;;;;;;5010987;28;20104;-48
2021/01/26 11:08:29;;;;;;;4.15;2.03;;;4.90;96.20;;;;;;5010976;28;20022;-46
2021/01/26 11:10:54;;;;;;;4.22;1.95;;;4.90;96.30;;;;;;5010849;28;20036;-45
2021/01/26 11:13:20;;;;;;;3.40;1.70;;;4.90;96.40;;;;;;5009509;28;20025;-56
2021/01/26 11:15:46;;;;;;;2.03;1.80;;;4.90;96.50;;;;;;4993318;28;20425;-50
2021/01/26 11:18:11;;;;;;;2.20;1.70;;;5.00;96.30;;;;;;5002600;28;20125;-47
2021/01/26 11:20:37;;;;;;;5.75;1.92;;;4.90;96.40;;;;;;5023453;28;20033;-49
2021/01/26 11:23:03;;;;;;;3.40;1.67;;;4.90;96.70;;;;;;5010250;28;20026;-49
2021/01/26 11:25:29;;;;;;;8.27;2.00;;;4.90;96.70;;;;;;5010724;28;20025;-54
2021/01/26 11:27:55;;;;;;;7.90;2.20;;;4.90;96.80;;;;;;4998951;28;20068;-48
2021/01/26 11:30:23;;;;;;;6.35;1.77;;;4.90;96.60;;;;;;5023673;28;20064;-50
2021/01/26 11:32:48;;;;;;;3.83;1.52;;;4.90;96.80;;;;;;5009837;28;20444;-49
2021/01/26 11:35:19;;;;;;;4.70;2.15;;;4.90;97.00;;;;;;5009166;28;20026;-41
2021/01/26 11:37:45;;;;;;;3.60;1.60;;;4.90;97.60;;;;;;4996513;28;20110;-40
2021/01/26 11:40:12;;;;;;;3.38;1.40;;;4.90;97.20;;;;;;5000987;28;20034;-45
2021/01/26 11:42:37;;;;;;;7.07;3.60;;;4.80;97.40;;;;;;5010610;28;20017;-49
2021/01/26 11:45:06;;;;;;;10.85;4.03;;;4.80;97.50;;;;;;5008317;28;20068;-43
2021/01/26 11:47:33;;;;;;;2.58;1.90;;;4.70;97.70;;;;;;5008963;28;20064;-50
2021/01/26 11:50:00;;;;;;;4.78;2.33;;;4.70;97.70;;;;;;5010893;28;20440;-48
2021/01/26 11:52:25;;;;;;;5.47;2.33;;;4.60;97.50;;;;;;5009802;28;20084;-49
2021/01/26 11:54:51;;;;;;;2.53;1.73;;;4.80;97.20;;;;;;5007446;28;20022;-48
2021/01/26 11:57:16;;;;;;;8.00;1.80;;;4.80;96.90;;;;;;5010680;28;20512;-47
2021/01/26 11:59:42;;;;;;;3.03;1.67;;;4.80;97.30;;;;;;5010177;28;20167;-45
2021/01/26 12:02:07;;;;;;;4.22;1.90;;;4.80;97.00;;;;;;5010675;28;20025;-45
2021/01/26 12:04:33;;;;;;;3.40;2.33;;;4.90;97.00;;;;;;5010168;28;20071;-46
2021/01/26 12:06:58;;;;;;;4.32;1.85;;;4.90;96.90;;;;;;5009091;28;20018;-48
2021/01/26 12:09:24;;;;;;;5.60;2.53;;;4.90;97.30;;;;;;5010518;28;20103;-46
2021/01/26 12:11:49;;;;;;;7.20;1.85;;;4.90;96.90;;;;;;5013673;28;20109;-45
2021/01/26 12:14:15;;;;;;;3.35;1.70;;;4.90;96.80;;;;;;5014642;28;20427;-46
2021/01/26 12:16:40;;;;;;;5.50;2.20;;;4.90;97.20;;;;;;5012966;28;20485;-46
2021/01/26 12:19:06;;;;;;;3.08;1.92;;;4.90;97.20;;;;;;5014221;28;20037;-46
2021/01/26 12:21:31;;;;;;;6.47;2.97;;;4.90;97.30;;;;;;5014288;28;20209;-47
2021/01/26 12:23:57;;;;;;;7.55;1.85;;;4.90;97.30;;;;;;5014096;28;20146;-44
2021/01/26 12:26:22;;;;;;;6.75;2.08;;;5.00;97.20;;;;;;5014128;28;20481;-45
2021/01/26 12:28:47;;;;;;;10.95;2.28;;;5.00;97.10;;;;;;5014406;28;20036;-46
2021/01/26 12:31:13;;;;;;;3.83;1.75;;;5.00;97.00;;;;;;5012653;28;20034;-44
2021/01/26 12:33:39;;;;;;;4.45;1.95;;;5.10;97.00;;;;;;5013653;28;20370;-46
2021/01/26 12:36:05;;;;;;;3.13;2.05;;;5.10;96.50;;;;;;5013949;28;20113;-46
2021/01/26 12:38:31;;;;;;;4.80;2.28;;;5.10;96.50;;;;;;5014350;28;20030;-47
2021/01/26 12:40:57;;;;;;;7.57;2.42;;;5.20;96.40;;;;;;5016102;28;20033;-47
2021/01/26 12:43:22;;;;;;;7.05;2.17;;;5.20;96.40;;;;;;5013566;28;20034;-45
2021/01/26 12:45:48;;;;;;;2.70;1.75;;;5.20;96.20;;;;;;5013786;28;20032;-47
2021/01/26 12:48:13;;;;;;;2.35;1.90;;;5.20;96.30;;;;;;5013823;28;20042;-45
2021/01/26 12:50:41;;;;;;;9.45;2.42;;;5.20;96.10;;;;;;5013826;28;20424;-46
2021/01/26 12:53:07;;;;;;;4.20;1.60;;;5.30;96.20;;;;;;5013599;28;20026;-46
2021/01/26 12:55:32;;;;;;;5.88;2.20;;;5.30;96.10;;;;;;5013524;28;20109;-47
2021/01/26 12:57:58;;;;;;;4.07;2.60;;;5.30;96.30;;;;;;5013604;28;20105;-46
2021/01/26 13:00:25;;;;;;;5.95;2.25;;;5.30;96.30;;;;;;5014347;28;20063;-47
2021/01/26 13:02:53;;;;;;;6.30;2.05;;;5.30;96.10;;;;;;5013239;28;20032;-45
2021/01/26 13:05:19;;;;;;;6.78;2.05;;;5.30;95.90;;;;;;5013537;28;20049;-46
2021/01/26 13:07:45;;;;;;;8.00;2.28;;;5.20;95.80;;;;;;5013522;28;20477;-45
2021/01/26 13:10:12;;;;;;;5.05;2.00;;;5.30;96.00;;;;;;5012182;28;20025;-47
2021/01/26 13:12:38;;;;;;;9.93;2.28;;;5.30;96.00;;;;;;5013287;28;20474;-45
2021/01/26 13:15:06;;;;;;;6.78;2.03;;;5.30;96.20;;;;;;5013666;28;20034;-47
2021/01/26 13:17:31;;;;;;;6.10;2.25;;;5.20;96.40;;;;;;5013155;28;20117;-47
2021/01/26 13:19:57;;;;;;;2.60;1.80;;;5.20;96.30;;;;;;5013233;28;20057;-45